createdAt,value
2023-02-13T00:01:23.722Z,5.56
2023-02-13T00:05:24.331Z,5.57
2023-02-13T00:09:30.491Z,5.59
2023-02-13T00:12:59.673Z,5.59
2023-02-13T00:16:57.481Z,5.58
2023-02-13T00:20:53.593Z,5.56
2023-02-13T00:24:46.717Z,5.59
2023-02-13T00:28:46.826Z,5.58
2023-02-13T00:32:35.885Z,5.60
2023-02-13T00:36:34.677Z,5.61
2023-02-13T00:40:28.522Z,5.60
2023-02-13T00:44:31.566Z,5.69
2023-02-13T00:47:51.532Z,5.59
2023-02-13T00:52:06.508Z,5.59
2023-02-13T00:56:12.177Z,5.54
2023-02-13T00:59:57.579Z,5.51
2023-02-13T01:03:44.957Z,5.57
2023-02-13T01:07:44.928Z,5.54
2023-02-13T01:11:47.145Z,5.58
2023-02-13T01:16:01.311Z,5.56
2023-02-13T01:19:58.441Z,5.51
2023-02-13T01:23:10.092Z,5.58
2023-02-13T01:26:20.464Z,5.51
2023-02-13T01:29:24.148Z,5.44
2023-02-13T01:32:28.275Z,5.52
2023-02-13T01:35:32.089Z,5.46
2023-02-13T01:38:35.953Z,5.46
2023-02-13T01:41:41.344Z,5.41
2023-02-13T01:44:53.695Z,5.42
2023-02-13T01:48:05.861Z,5.44
2023-02-13T01:51:14.559Z,5.40
2023-02-13T01:54:22.903Z,5.39
2023-02-13T01:57:35.009Z,5.45
2023-02-13T02:00:40.153Z,5.47
2023-02-13T02:03:50.678Z,5.44
2023-02-13T02:06:59.542Z,5.39
2023-02-13T02:10:09.717Z,5.36
2023-02-13T02:13:18.667Z,5.37
2023-02-13T02:16:22.522Z,5.35
2023-02-13T02:19:43.192Z,5.43
2023-02-13T02:23:42.914Z,5.33
2023-02-13T02:27:21.234Z,5.33
2023-02-13T02:31:20.418Z,5.30
2023-02-13T02:34:38.602Z,5.31
2023-02-13T02:38:10.181Z,5.29
2023-02-13T02:41:41.261Z,5.33
2023-02-13T02:44:56.038Z,5.30
2023-02-13T02:48:27.835Z,5.39
2023-02-13T02:51:42.563Z,5.33
2023-02-13T02:55:08.286Z,5.28
2023-02-13T02:58:39.938Z,5.29
2023-02-13T03:02:03.609Z,5.32
2023-02-13T03:05:39.531Z,5.33
2023-02-13T03:09:11.150Z,5.41
2023-02-13T03:12:38.471Z,5.36
2023-02-13T03:16:00.217Z,5.38
2023-02-13T03:19:21.718Z,5.32
2023-02-13T03:22:39.431Z,5.32
2023-02-13T03:26:46.276Z,5.38
2023-02-13T03:30:11.866Z,5.33
2023-02-13T03:33:38.984Z,5.38
2023-02-13T03:37:09.998Z,5.31
2023-02-13T03:40:22.717Z,5.40
2023-02-13T03:43:34.155Z,5.36
2023-02-13T03:46:43.662Z,5.35
2023-02-13T03:50:06.526Z,5.37
2023-02-13T03:53:14.664Z,5.36
2023-02-13T03:56:40.768Z,5.40
2023-02-13T03:59:46.303Z,5.34
2023-02-13T04:03:05.180Z,5.36
2023-02-13T04:06:15.456Z,5.39
2023-02-13T04:09:19.625Z,5.35
2023-02-13T04:12:34.512Z,5.33
2023-02-13T04:15:45.694Z,5.33
2023-02-13T04:18:53.649Z,5.37
2023-02-13T04:22:01.021Z,5.35
2023-02-13T04:25:04.839Z,5.33
2023-02-13T04:28:08.824Z,5.32
2023-02-13T04:31:14.610Z,5.31
2023-02-13T04:34:18.679Z,5.31
2023-02-13T04:37:22.429Z,5.32
2023-02-13T04:40:26.313Z,5.36
2023-02-13T04:43:30.118Z,5.37
2023-02-13T04:46:35.473Z,5.33
2023-02-13T04:49:39.301Z,5.31
2023-02-13T04:52:43.143Z,5.32
2023-02-13T04:55:46.930Z,5.31
2023-02-13T04:58:50.753Z,5.33
2023-02-13T05:01:55.980Z,5.31
2023-02-13T05:04:59.805Z,5.27
2023-02-13T05:08:04.361Z,5.25
2023-02-13T05:11:08.535Z,5.31
2023-02-13T05:14:12.931Z,5.32
2023-02-13T05:17:18.121Z,5.26
2023-02-13T05:20:22.304Z,5.32
2023-02-13T05:23:25.599Z,5.33
2023-02-13T05:26:29.405Z,5.30
2023-02-13T05:29:33.214Z,5.32
2023-02-13T05:32:38.556Z,5.23
2023-02-13T05:35:42.283Z,5.21
2023-02-13T05:38:46.194Z,5.27
2023-02-13T05:41:51.173Z,5.27
2023-02-13T05:44:55.091Z,5.20
2023-02-13T05:48:00.239Z,5.20
2023-02-13T05:51:04.188Z,5.28
2023-02-13T05:54:08.028Z,5.22
2023-02-13T05:57:11.936Z,5.27
2023-02-13T06:00:17.799Z,5.28
2023-02-13T06:03:23.053Z,5.25
2023-02-13T06:06:26.856Z,5.22
2023-02-13T06:09:30.837Z,5.21
2023-02-13T06:12:34.635Z,5.22
2023-02-13T06:15:38.418Z,5.23
2023-02-13T06:18:43.652Z,5.27
2023-02-13T06:21:47.509Z,5.32
2023-02-13T06:24:51.232Z,5.33
2023-02-13T06:27:54.970Z,5.34
2023-02-13T06:30:59.297Z,5.27
2023-02-13T06:34:05.339Z,5.23
2023-02-13T06:37:09.067Z,5.28
2023-02-13T06:40:15.087Z,5.32
2023-02-13T06:43:19.441Z,5.31
2023-02-13T06:46:23.301Z,5.31
2023-02-13T06:49:28.506Z,5.35
2023-02-13T06:52:32.217Z,5.39
2023-02-13T06:55:36.759Z,5.32
2023-02-13T06:58:40.525Z,5.31
2023-02-13T07:01:44.317Z,5.29
2023-02-13T07:04:49.505Z,5.29
2023-02-13T07:07:53.247Z,5.26
2023-02-13T07:10:57.279Z,5.28
2023-02-13T07:14:01.413Z,5.27
2023-02-13T07:17:05.321Z,5.24
2023-02-13T07:20:12.625Z,5.33
2023-02-13T07:23:16.419Z,5.32
2023-02-13T07:26:20.274Z,5.31
2023-02-13T07:29:24.130Z,5.36
2023-02-13T07:32:28.295Z,5.34
2023-02-13T07:35:36.036Z,5.41
2023-02-13T07:38:39.847Z,5.43
2023-02-13T07:41:43.720Z,5.46
2023-02-13T07:44:47.580Z,5.54
2023-02-13T07:47:51.517Z,5.50
2023-02-13T07:51:01.117Z,5.53
2023-02-13T07:54:05.824Z,5.49
2023-02-13T07:57:09.927Z,5.53
2023-02-13T08:00:15.603Z,5.56
2023-02-13T08:03:19.509Z,5.63
2023-02-13T08:06:25.306Z,5.69
2023-02-13T08:09:54.166Z,5.77
2023-02-13T08:13:00.722Z,5.67
2023-02-13T08:16:05.792Z,5.69
2023-02-13T08:19:14.089Z,5.67
2023-02-13T08:22:39.184Z,5.64
2023-02-13T08:25:43.194Z,5.65
2023-02-13T08:28:46.996Z,5.68
2023-02-13T08:31:57.618Z,5.62
2023-02-13T08:35:01.534Z,5.75
2023-02-13T08:38:07.009Z,5.71
2023-02-13T08:41:10.813Z,5.64
2023-02-13T08:44:14.803Z,5.73
2023-02-13T08:47:18.638Z,5.78
2023-02-13T08:50:22.384Z,5.70
2023-02-13T08:53:27.595Z,5.78
2023-02-13T08:56:31.441Z,5.66
2023-02-13T08:59:35.248Z,5.59
2023-02-13T09:02:39.147Z,5.66
2023-02-13T09:05:43.495Z,5.73
2023-02-13T09:08:48.729Z,5.71
2023-02-13T09:11:54.054Z,5.71
2023-02-13T09:14:57.844Z,5.72
2023-02-13T09:18:01.722Z,5.71
2023-02-13T09:21:09.509Z,5.70
2023-02-13T09:24:14.836Z,5.55
2023-02-13T09:27:18.564Z,5.57
2023-02-13T09:30:28.721Z,5.70
2023-02-13T09:33:33.652Z,5.66
2023-02-13T09:36:37.569Z,5.52
2023-02-13T09:39:42.652Z,5.62
2023-02-13T09:42:48.856Z,5.78
2023-02-13T09:45:58.852Z,5.73
2023-02-13T09:49:15.036Z,5.88
2023-02-13T09:52:19.056Z,5.89
2023-02-13T09:55:31.380Z,5.80
2023-02-13T09:58:45.991Z,5.69
2023-02-13T10:03:11.499Z,5.87
2023-02-13T10:06:37.270Z,5.92
2023-02-13T10:09:54.695Z,5.83
2023-02-13T10:13:26.061Z,5.73
2023-02-13T10:16:37.115Z,5.82
2023-02-13T10:19:48.123Z,5.96
2023-02-13T10:23:00.571Z,6.00
2023-02-13T10:26:09.996Z,5.99
2023-02-13T10:29:41.405Z,5.99
2023-02-13T10:33:11.360Z,6.05
2023-02-13T10:36:25.501Z,6.03
2023-02-13T10:39:32.940Z,5.96
2023-02-13T10:42:46.432Z,5.87
2023-02-13T10:46:26.164Z,5.87
2023-02-13T10:49:51.513Z,6.01
2023-02-13T10:53:13.194Z,6.11
2023-02-13T10:56:33.532Z,6.18
2023-02-13T10:59:55.942Z,5.98
2023-02-13T11:03:02.099Z,6.19
2023-02-13T11:06:14.647Z,6.08
2023-02-13T11:09:19.956Z,6.01
2023-02-13T11:12:29.971Z,6.22
2023-02-13T11:15:35.092Z,6.24
2023-02-13T11:18:45.098Z,6.33
2023-02-13T11:21:56.542Z,6.25
2023-02-13T11:25:05.159Z,6.15
2023-02-13T11:28:17.810Z,6.30
2023-02-13T11:31:28.192Z,6.26
2023-02-13T11:34:35.742Z,6.33
2023-02-13T11:37:40.359Z,6.42
2023-02-13T11:40:47.716Z,6.37
2023-02-13T11:44:01.133Z,6.58
2023-02-13T11:47:05.237Z,6.35
2023-02-13T11:50:27.225Z,6.55
2023-02-13T11:53:37.291Z,6.47
2023-02-13T11:57:04.140Z,6.56
2023-02-13T12:00:40.222Z,6.45
2023-02-13T12:03:44.156Z,6.48
2023-02-13T12:07:05.398Z,6.51
2023-02-13T12:10:22.675Z,6.59
2023-02-13T12:13:34.154Z,6.57
2023-02-13T12:16:43.663Z,6.63
2023-02-13T12:19:50.768Z,6.66
2023-02-13T12:23:08.988Z,6.79
2023-02-13T12:26:30.646Z,6.83
2023-02-13T12:30:05.156Z,6.82
2023-02-13T12:33:25.237Z,6.76
2023-02-13T12:36:39.627Z,6.70
2023-02-13T12:40:04.035Z,6.58
2023-02-13T12:43:53.295Z,6.72
2023-02-13T12:47:17.184Z,6.71
2023-02-13T12:50:58.691Z,6.85
2023-02-13T12:54:25.846Z,6.94
2023-02-13T12:57:48.719Z,6.78
2023-02-13T13:01:04.832Z,6.86
2023-02-13T13:04:22.513Z,6.76
2023-02-13T13:08:02.097Z,6.97
2023-02-13T13:11:29.137Z,6.94
2023-02-13T13:14:47.809Z,6.97
2023-02-13T13:18:05.520Z,6.75
2023-02-13T13:21:34.334Z,6.81
2023-02-13T13:24:57.150Z,6.96
2023-02-13T13:28:09.280Z,6.81
2023-02-13T13:31:16.583Z,6.81
2023-02-13T13:34:25.830Z,6.72
2023-02-13T13:37:38.413Z,6.72
2023-02-13T13:40:52.843Z,6.80
2023-02-13T13:44:26.541Z,6.79
2023-02-13T13:48:01.820Z,6.87
2023-02-13T13:51:09.192Z,6.85
2023-02-13T13:54:25.291Z,6.90
2023-02-13T13:58:07.460Z,6.91
2023-02-13T14:01:30.886Z,7.09
2023-02-13T14:04:43.739Z,6.97
2023-02-13T14:07:50.986Z,6.94
2023-02-13T14:11:06.217Z,6.93
2023-02-13T14:14:55.784Z,6.86
2023-02-13T14:18:02.246Z,6.85
2023-02-13T14:21:08.440Z,6.85
2023-02-13T14:24:13.819Z,6.76
2023-02-13T14:27:25.058Z,6.82
2023-02-13T14:30:34.236Z,6.79
2023-02-13T14:33:38.108Z,6.69
2023-02-13T14:36:47.940Z,6.69
2023-02-13T14:40:33.588Z,6.75
2023-02-13T14:43:47.600Z,6.76
2023-02-13T14:46:54.296Z,6.73
2023-02-13T14:50:00.894Z,6.73
2023-02-13T14:53:18.801Z,6.71
2023-02-13T14:56:24.565Z,6.71
2023-02-13T14:59:35.384Z,6.62
2023-02-13T15:02:47.719Z,6.72
2023-02-13T15:05:55.633Z,6.70
2023-02-13T15:09:06.044Z,6.71
2023-02-13T15:12:30.243Z,6.70
2023-02-13T15:15:38.062Z,6.55
2023-02-13T15:18:46.740Z,6.58
2023-02-13T15:21:58.294Z,6.54
2023-02-13T15:25:04.454Z,6.45
2023-02-13T15:28:20.023Z,6.55
2023-02-13T15:31:26.311Z,6.44
2023-02-13T15:34:34.458Z,6.44
2023-02-13T15:37:38.265Z,6.39
2023-02-13T15:40:45.297Z,6.36
2023-02-13T15:43:54.611Z,6.35
2023-02-13T15:47:07.429Z,6.34
2023-02-13T15:50:23.076Z,6.32
2023-02-13T15:53:26.908Z,6.33
2023-02-13T15:56:33.174Z,6.28
2023-02-13T15:59:40.374Z,6.25
2023-02-13T16:02:48.917Z,6.30
2023-02-13T16:05:53.193Z,6.28
2023-02-13T16:08:59.007Z,6.22
2023-02-13T16:12:08.440Z,6.18
2023-02-13T16:15:33.384Z,6.21
2023-02-13T16:18:37.299Z,6.23
2023-02-13T16:21:41.214Z,6.23
2023-02-13T16:24:52.107Z,6.23
2023-02-13T16:28:01.043Z,6.22
2023-02-13T16:31:07.390Z,6.18
2023-02-13T16:34:26.811Z,6.17
2023-02-13T16:37:33.473Z,6.16
2023-02-13T16:40:46.518Z,6.16
2023-02-13T16:43:53.050Z,6.14
2023-02-13T16:47:01.546Z,6.07
2023-02-13T16:50:06.268Z,6.03
2023-02-13T16:53:10.434Z,5.99
2023-02-13T16:56:14.552Z,6.05
2023-02-13T16:59:43.345Z,6.03
2023-02-13T17:02:49.309Z,5.98
2023-02-13T17:05:53.076Z,5.97
2023-02-13T17:08:56.978Z,5.97
2023-02-13T17:12:00.734Z,5.98
2023-02-13T17:15:13.195Z,5.96
2023-02-13T17:18:17.302Z,5.95
2023-02-13T17:21:21.076Z,5.96
2023-02-13T17:24:24.900Z,5.95
2023-02-13T17:27:29.385Z,5.95
2023-02-13T17:30:35.418Z,5.95
2023-02-13T17:33:41.312Z,5.94
2023-02-13T17:36:45.123Z,5.98
2023-02-13T17:39:50.289Z,5.97
2023-02-13T17:42:56.518Z,5.84
2023-02-13T17:46:01.753Z,5.88
2023-02-13T17:49:05.764Z,5.89
2023-02-13T17:52:12.375Z,5.90
2023-02-13T17:55:21.279Z,5.99
2023-02-13T17:58:25.686Z,5.93
2023-02-13T18:01:30.959Z,5.92
2023-02-13T18:04:34.811Z,5.92
2023-02-13T18:07:39.581Z,5.92
2023-02-13T18:10:43.585Z,5.90
2023-02-13T18:13:48.575Z,5.88
2023-02-13T18:16:53.773Z,5.88
2023-02-13T18:19:58.120Z,5.90
2023-02-13T18:23:02.316Z,5.88
2023-02-13T18:26:09.205Z,5.88
2023-02-13T18:29:12.943Z,5.88
2023-02-13T18:32:18.509Z,5.87
2023-02-13T18:35:23.801Z,5.87
2023-02-13T18:38:27.755Z,5.79
2023-02-13T18:41:31.582Z,5.82
2023-02-13T18:44:35.916Z,5.79
2023-02-13T18:47:41.406Z,5.79
2023-02-13T18:50:45.336Z,5.79
2023-02-13T18:53:50.555Z,5.73
2023-02-13T18:56:54.409Z,5.77
2023-02-13T18:59:58.163Z,5.75
2023-02-13T19:03:03.331Z,5.79
2023-02-13T19:06:10.301Z,5.79
2023-02-13T19:09:14.524Z,5.80
2023-02-13T19:12:18.362Z,5.76
2023-02-13T19:15:31.346Z,5.79
2023-02-13T19:18:40.188Z,5.73
2023-02-13T19:21:44.071Z,5.73
2023-02-13T19:24:47.791Z,5.76
2023-02-13T19:27:51.556Z,5.69
2023-02-13T19:30:55.312Z,5.67
2023-02-13T19:34:00.920Z,5.67
2023-02-13T19:37:04.656Z,5.67
2023-02-13T19:40:10.020Z,5.73
2023-02-13T19:43:13.803Z,5.74
2023-02-13T19:46:19.096Z,5.73
2023-02-13T19:49:32.480Z,5.69
2023-02-13T19:52:37.264Z,5.70
2023-02-13T19:55:41.013Z,5.71
2023-02-13T19:58:45.193Z,5.71
2023-02-13T20:01:59.183Z,5.63
2023-02-13T20:05:13.081Z,5.59
2023-02-13T20:08:43.045Z,5.55
2023-02-13T20:11:55.754Z,5.60
2023-02-13T20:15:00.364Z,5.57
2023-02-13T20:18:10.156Z,5.55
2023-02-13T20:21:20.301Z,5.60
2023-02-13T20:24:24.038Z,5.57
2023-02-13T20:27:27.842Z,5.52
2023-02-13T20:30:31.986Z,5.40
2023-02-13T20:33:45.194Z,5.38
2023-02-13T20:36:51.725Z,5.42
2023-02-13T20:40:00.515Z,5.42
2023-02-13T20:43:04.321Z,5.40
2023-02-13T20:46:09.020Z,5.46
2023-02-13T20:49:18.927Z,5.36
2023-02-13T20:52:24.106Z,5.26
2023-02-13T20:55:28.059Z,5.15
2023-02-13T20:58:32.831Z,5.14
2023-02-13T21:01:45.238Z,5.05
2023-02-13T21:04:52.491Z,5.05
2023-02-13T21:07:58.378Z,5.02
2023-02-13T21:11:03.123Z,4.97
2023-02-13T21:14:07.815Z,4.92
2023-02-13T21:17:11.781Z,4.87
2023-02-13T21:20:15.654Z,4.71
2023-02-13T21:23:48.602Z,4.62
2023-02-13T21:27:48.804Z,4.35
2023-02-13T21:32:00.320Z,4.32
2023-02-13T21:35:52.413Z,4.25
2023-02-13T21:40:04.319Z,4.21
2023-02-13T21:44:00.166Z,4.19
2023-02-13T21:48:01.128Z,4.13
2023-02-13T21:52:06.897Z,4.09
2023-02-13T21:56:19.060Z,4.07
2023-02-13T22:00:20.061Z,4.01
2023-02-13T22:04:27.255Z,3.74
2023-02-13T22:08:16.966Z,3.80
2023-02-13T22:12:21.584Z,3.70
2023-02-13T22:16:33.757Z,3.68
2023-02-13T22:20:45.643Z,3.60
2023-02-13T22:24:42.965Z,3.67
2023-02-13T22:28:57.742Z,3.64
2023-02-13T22:32:52.680Z,3.62
2023-02-13T22:36:48.179Z,3.58
2023-02-13T22:40:53.316Z,3.55
2023-02-13T22:44:59.590Z,3.56
2023-02-13T22:48:51.898Z,3.24
2023-02-13T22:52:05.649Z,3.11
2023-02-13T22:55:10.170Z,3.28
2023-02-13T22:58:15.212Z,3.34
2023-02-13T23:01:23.057Z,3.44
2023-02-13T23:04:26.946Z,3.51
2023-02-13T23:07:31.056Z,3.08
2023-02-13T23:10:34.988Z,2.84
2023-02-13T23:13:37.810Z,2.78
2023-02-13T23:17:01.994Z,2.70
2023-02-13T23:20:07.415Z,2.89
2023-02-13T23:23:12.376Z,2.97
2023-02-13T23:26:16.493Z,3.05
2023-02-13T23:29:20.287Z,3.15
2023-02-13T23:32:25.729Z,3.31
2023-02-13T23:35:29.750Z,3.36
2023-02-13T23:38:33.591Z,3.48
2023-02-13T23:41:37.414Z,3.49
2023-02-13T23:44:41.226Z,3.51
2023-02-13T23:47:46.564Z,3.60
2023-02-13T23:50:53.229Z,3.60
2023-02-13T23:53:57.535Z,3.61
2023-02-13T23:57:01.425Z,3.65
